<?xml version='1.0' encoding='UTF-8'?><gpx version="1.1" creator="JPX - https://github.com/jenetics/jpx" xmlns="http://www.topografix.com/GPX/1/1"><trk><trkseg><trkpt lat="45.4916483" lon="12.1765417"><ele>1.9999999999999998</ele><time>2026-04-06T07:51:32.83Z</time></trkpt><trkpt lat="45.491565" lon="12.176585"><ele>2.0</ele><time>2026-04-06T07:51:36.835Z</time></trkpt><trkpt lat="45.49151" lon="12.176675"><ele>2.0</ele><time>2026-04-06T07:51:39.828Z</time></trkpt><trkpt lat="45.4914233" lon="12.176705"><ele>2.0</ele><time>2026-04-06T07:51:42.834Z</time></trkpt><trkpt lat="45.4913417" lon="12.1766783"><ele>1.9999999999999998</ele><time>2026-04-06T07:51:44.835Z</time></trkpt><trkpt lat="45.4912567" lon="12.17664"><ele>2.0</ele><time>2026-04-06T07:51:46.835Z</time></trkpt><trkpt lat="45.4911717" lon="12.1766017"><ele>2.0</ele><time>2026-04-06T07:51:48.834Z</time></trkpt><trkpt lat="45.491085" lon="12.1765583"><ele>2.0</ele><time>2026-04-06T07:51:50.834Z</time></trkpt><trkpt lat="45.4909567" lon="12.176505"><ele>2.0</ele><time>2026-04-06T07:51:53.836Z</time></trkpt><trkpt lat="45.4908717" lon="12.1764717"><ele>2.0</ele><time>2026-04-06T07:51:55.834Z</time></trkpt><trkpt lat="45.49079" lon="12.1764383"><ele>2.0</ele><time>2026-04-06T07:51:57.834Z</time></trkpt><trkpt lat="45.490705" lon="12.176395"><ele>1.9999999999999998</ele><time>2026-04-06T07:51:59.836Z</time></trkpt><trkpt lat="45.4906233" lon="12.1763417"><ele>2.0</ele><time>2026-04-06T07:52:01.837Z</time></trkpt><trkpt lat="45.4905517" lon="12.1762583"><ele>2.0</ele><time>2026-04-06T07:52:03.836Z</time></trkpt><trkpt lat="45.49048" lon="12.1761883"><ele>2.0</ele><time>2026-04-06T07:52:05.836Z</time></trkpt><trkpt lat="45.490405" lon="12.1761333"><ele>1.9999999999999998</ele><time>2026-04-06T07:52:07.837Z</time></trkpt><trkpt lat="45.4903483" lon="12.176055"><ele>2.0</ele><time>2026-04-06T07:52:09.836Z</time></trkpt><trkpt lat="45.49036" lon="12.1759583"><ele>2.0</ele><time>2026-04-06T07:52:11.829Z</time></trkpt><trkpt lat="45.4903783" lon="12.1758683"><ele>1.9999999999999998</ele><time>2026-04-06T07:52:13.839Z</time></trkpt><trkpt lat="45.49035" lon="12.1757433"><ele>2.0</ele><time>2026-04-06T07:52:16.837Z</time></trkpt><trkpt lat="45.4903033" lon="12.1756733"><ele>2.0</ele><time>2026-04-06T07:52:18.835Z</time></trkpt><trkpt lat="45.49026" lon="12.175595"><ele>1.9999999999999998</ele><time>2026-04-06T07:52:20.836Z</time></trkpt><trkpt lat="45.4902233" lon="12.1755083"><ele>2.0</ele><time>2026-04-06T07:52:22.835Z</time></trkpt><trkpt lat="45.4901917" lon="12.175415"><ele>2.0</ele><time>2026-04-06T07:52:24.828Z</time></trkpt><trkpt lat="45.490155" lon="12.17533"><ele>1.9999999999999998</ele><time>2026-04-06T07:52:26.835Z</time></trkpt><trkpt lat="45.4901033" lon="12.1752667"><ele>2.0</ele><time>2026-04-06T07:52:28.834Z</time></trkpt><trkpt lat="45.4900417" lon="12.1752133"><ele>2.0</ele><time>2026-04-06T07:52:30.839Z</time></trkpt><trkpt lat="45.4899767" lon="12.175155"><ele>2.0</ele><time>2026-04-06T07:52:32.837Z</time></trkpt><trkpt lat="45.4899067" lon="12.175095"><ele>1.9999999999999998</ele><time>2026-04-06T07:52:34.835Z</time></trkpt><trkpt lat="45.4898333" lon="12.1750483"><ele>2.0</ele><time>2026-04-06T07:52:36.827Z</time></trkpt><trkpt lat="45.4897617" lon="12.1750033"><ele>2.0</ele><time>2026-04-06T07:52:38.837Z</time></trkpt><trkpt lat="45.4897017" lon="12.1749733"><ele>1.9999999999999998</ele><time>2026-04-06T07:52:40.834Z</time></trkpt><trkpt lat="45.4896317" lon="12.1749817"><ele>2.0</ele><time>2026-04-06T07:52:43.838Z</time></trkpt><trkpt lat="45.4895683" lon="12.1750233"><ele>2.0</ele><time>2026-04-06T07:52:46.834Z</time></trkpt><trkpt lat="45.4895267" lon="12.174955"><ele>1.9999999999999998</ele><time>2026-04-06T07:52:56.834Z</time></trkpt><trkpt lat="45.489455" lon="12.1748967"><ele>2.0</ele><time>2026-04-06T07:53:00.836Z</time></trkpt><trkpt lat="45.4893733" lon="12.1748283"><ele>2.0</ele><time>2026-04-06T07:53:03.837Z</time></trkpt><trkpt lat="45.4893033" lon="12.174785"><ele>2.8</ele><time>2026-04-06T07:53:05.839Z</time></trkpt><trkpt lat="45.4892283" lon="12.1747383"><ele>3.6</ele><time>2026-04-06T07:53:07.838Z</time></trkpt><trkpt lat="45.48914" lon="12.1746733"><ele>4.3999999999999995</ele><time>2026-04-06T07:53:09.834Z</time></trkpt><trkpt lat="45.4890417" lon="12.1746083"><ele>5.2</ele><time>2026-04-06T07:53:11.83Z</time></trkpt><trkpt lat="45.4889533" lon="12.1745567"><ele>6.0</ele><time>2026-04-06T07:53:13.836Z</time></trkpt><trkpt lat="45.48887" lon="12.1745"><ele>6.0</ele><time>2026-04-06T07:53:15.834Z</time></trkpt><trkpt lat="45.4887983" lon="12.1744517"><ele>6.0</ele><time>2026-04-06T07:53:17.836Z</time></trkpt><trkpt lat="45.48875" lon="12.17439"><ele>6.0</ele><time>2026-04-06T07:53:22.836Z</time></trkpt><trkpt lat="45.4887" lon="12.1744917"><ele>6.0</ele><time>2026-04-06T07:53:28.834Z</time></trkpt><trkpt lat="45.4886533" lon="12.1746117"><ele>6.0</ele><time>2026-04-06T07:53:30.837Z</time></trkpt><trkpt lat="45.4886217" lon="12.174695"><ele>6.0</ele><time>2026-04-06T07:53:31.837Z</time></trkpt><trkpt lat="45.4885883" lon="12.17478"><ele>5.7142857142857135</ele><time>2026-04-06T07:53:32.836Z</time></trkpt><trkpt lat="45.4885583" lon="12.1748633"><ele>5.428571428571429</ele><time>2026-04-06T07:53:33.834Z</time></trkpt><trkpt lat="45.4885267" lon="12.1749483"><ele>5.142857142857142</ele><time>2026-04-06T07:53:34.835Z</time></trkpt><trkpt lat="45.4884933" lon="12.1750317"><ele>4.857142857142857</ele><time>2026-04-06T07:53:35.837Z</time></trkpt><trkpt lat="45.4884617" lon="12.1751183"><ele>4.571428571428571</ele><time>2026-04-06T07:53:36.838Z</time></trkpt><trkpt lat="45.488435" lon="12.1752183"><ele>4.285714285714286</ele><time>2026-04-06T07:53:37.835Z</time></trkpt><trkpt lat="45.4884017" lon="12.1753133"><ele>4.0</ele><time>2026-04-06T07:53:38.836Z</time></trkpt><trkpt lat="45.488375" lon="12.1754067"><ele>4.0</ele><time>2026-04-06T07:53:39.836Z</time></trkpt><trkpt lat="45.4883433" lon="12.1754867"><ele>4.0</ele><time>2026-04-06T07:53:40.835Z</time></trkpt><trkpt lat="45.488295" lon="12.17563"><ele>4.0</ele><time>2026-04-06T07:53:42.835Z</time></trkpt><trkpt lat="45.4882467" lon="12.1757583"><ele>4.0</ele><time>2026-04-06T07:53:44.834Z</time></trkpt><trkpt lat="45.4882" lon="12.1758617"><ele>4.0</ele><time>2026-04-06T07:53:46.836Z</time></trkpt><trkpt lat="45.4881567" lon="12.1759717"><ele>4.0</ele><time>2026-04-06T07:53:48.837Z</time></trkpt><trkpt lat="45.4881183" lon="12.1760783"><ele>4.0</ele><time>2026-04-06T07:53:50.834Z</time></trkpt><trkpt lat="45.4880783" lon="12.1762"><ele>4.0</ele><time>2026-04-06T07:53:52.836Z</time></trkpt><trkpt lat="45.4880367" lon="12.1763283"><ele>4.0</ele><time>2026-04-06T07:53:54.835Z</time></trkpt><trkpt lat="45.4879917" lon="12.1764567"><ele>4.0</ele><time>2026-04-06T07:53:56.836Z</time></trkpt><trkpt lat="45.4879483" lon="12.1765883"><ele>4.0</ele><time>2026-04-06T07:53:58.835Z</time></trkpt><trkpt lat="45.4879117" lon="12.1767283"><ele>4.0</ele><time>2026-04-06T07:54:00.836Z</time></trkpt><trkpt lat="45.487865" lon="12.1768567"><ele>4.0</ele><time>2026-04-06T07:54:02.836Z</time></trkpt><trkpt lat="45.4878133" lon="12.1769867"><ele>4.0</ele><time>2026-04-06T07:54:04.835Z</time></trkpt><trkpt lat="45.487765" lon="12.1771167"><ele>4.0</ele><time>2026-04-06T07:54:06.838Z</time></trkpt><trkpt lat="45.48772" lon="12.1772467"><ele>4.0</ele><time>2026-04-06T07:54:08.837Z</time></trkpt><trkpt lat="45.4876767" lon="12.17737"><ele>4.0</ele><time>2026-04-06T07:54:10.837Z</time></trkpt><trkpt lat="45.4876333" lon="12.1775083"><ele>4.0</ele><time>2026-04-06T07:54:12.838Z</time></trkpt><trkpt lat="45.4875967" lon="12.17765"><ele>4.0</ele><time>2026-04-06T07:54:14.837Z</time></trkpt><trkpt lat="45.4875533" lon="12.1777833"><ele>4.0</ele><time>2026-04-06T07:54:16.836Z</time></trkpt><trkpt lat="45.4875067" lon="12.177935"><ele>4.0</ele><time>2026-04-06T07:54:18.836Z</time></trkpt><trkpt lat="45.4874683" lon="12.1780767"><ele>4.0</ele><time>2026-04-06T07:54:20.837Z</time></trkpt><trkpt lat="45.4874417" lon="12.1782233"><ele>4.0</ele><time>2026-04-06T07:54:22.836Z</time></trkpt><trkpt lat="45.4874067" lon="12.1783567"><ele>4.0</ele><time>2026-04-06T07:54:24.835Z</time></trkpt><trkpt lat="45.4873367" lon="12.1784433"><ele>4.0</ele><time>2026-04-06T07:54:26.836Z</time></trkpt><trkpt lat="45.4872517" lon="12.1785217"><ele>3.833333333333333</ele><time>2026-04-06T07:54:28.836Z</time></trkpt><trkpt lat="45.4871783" lon="12.1785867"><ele>3.6666666666666665</ele><time>2026-04-06T07:54:30.837Z</time></trkpt><trkpt lat="45.48712" lon="12.1787033"><ele>3.5</ele><time>2026-04-06T07:54:32.837Z</time></trkpt><trkpt lat="45.487065" lon="12.17879"><ele>3.333333333333333</ele><time>2026-04-06T07:54:34.837Z</time></trkpt><trkpt lat="45.4870317" lon="12.17888"><ele>3.1666666666666665</ele><time>2026-04-06T07:54:37.84Z</time></trkpt><trkpt lat="45.4869833" lon="12.1789667"><ele>3.0</ele><time>2026-04-06T07:54:40.838Z</time></trkpt><trkpt lat="45.4869433" lon="12.1790383"><ele>3.3333333333333335</ele><time>2026-04-06T07:54:42.835Z</time></trkpt><trkpt lat="45.486895" lon="12.1791267"><ele>3.666666666666667</ele><time>2026-04-06T07:54:44.836Z</time></trkpt><trkpt lat="45.4868433" lon="12.17922"><ele>4.0</ele><time>2026-04-06T07:54:46.837Z</time></trkpt><trkpt lat="45.4867983" lon="12.17931"><ele>4.333333333333334</ele><time>2026-04-06T07:54:48.836Z</time></trkpt><trkpt lat="45.4867483" lon="12.1794067"><ele>4.666666666666667</ele><time>2026-04-06T07:54:50.836Z</time></trkpt><trkpt lat="45.4866883" lon="12.1795117"><ele>5.0</ele><time>2026-04-06T07:54:52.836Z</time></trkpt><trkpt lat="45.4866367" lon="12.1796233"><ele>5.0</ele><time>2026-04-06T07:54:54.837Z</time></trkpt><trkpt lat="45.4865917" lon="12.179745"><ele>5.0</ele><time>2026-04-06T07:54:56.835Z</time></trkpt><trkpt lat="45.4865367" lon="12.1798717"><ele>5.0</ele><time>2026-04-06T07:54:58.837Z</time></trkpt><trkpt lat="45.48647" lon="12.1799867"><ele>5.0</ele><time>2026-04-06T07:55:00.836Z</time></trkpt><trkpt lat="45.4864083" lon="12.1801083"><ele>5.0</ele><time>2026-04-06T07:55:02.835Z</time></trkpt><trkpt lat="45.4863483" lon="12.1802233"><ele>5.0</ele><time>2026-04-06T07:55:04.837Z</time></trkpt><trkpt lat="45.4862767" lon="12.1803183"><ele>5.0</ele><time>2026-04-06T07:55:06.835Z</time></trkpt><trkpt lat="45.4861967" lon="12.1804267"><ele>5.0</ele><time>2026-04-06T07:55:08.836Z</time></trkpt><trkpt lat="45.4861333" lon="12.1805433"><ele>5.0</ele><time>2026-04-06T07:55:10.836Z</time></trkpt><trkpt lat="45.4860733" lon="12.1806483"><ele>5.0</ele><time>2026-04-06T07:55:12.836Z</time></trkpt><trkpt lat="45.4860233" lon="12.1807633"><ele>4.8</ele><time>2026-04-06T07:55:14.835Z</time></trkpt><trkpt lat="45.4859667" lon="12.1808783"><ele>4.6</ele><time>2026-04-06T07:55:16.841Z</time></trkpt><trkpt lat="45.4859083" lon="12.1810033"><ele>4.4</ele><time>2026-04-06T07:55:18.838Z</time></trkpt><trkpt lat="45.4858583" lon="12.1811317"><ele>4.2</ele><time>2026-04-06T07:55:20.836Z</time></trkpt><trkpt lat="45.485805" lon="12.1812483"><ele>4.0</ele><time>2026-04-06T07:55:22.838Z</time></trkpt><trkpt lat="45.4857533" lon="12.1813683"><ele>4.0</ele><time>2026-04-06T07:55:24.837Z</time></trkpt><trkpt lat="45.4857" lon="12.181495"><ele>4.0</ele><time>2026-04-06T07:55:26.838Z</time></trkpt><trkpt lat="45.4856483" lon="12.181625"><ele>4.0</ele><time>2026-04-06T07:55:28.838Z</time></trkpt><trkpt lat="45.4856017" lon="12.1817533"><ele>4.0</ele><time>2026-04-06T07:55:30.837Z</time></trkpt><trkpt lat="45.48557" lon="12.181895"><ele>4.0</ele><time>2026-04-06T07:55:32.837Z</time></trkpt><trkpt lat="45.48553" lon="12.18203"><ele>4.2</ele><time>2026-04-06T07:55:34.836Z</time></trkpt><trkpt lat="45.4854933" lon="12.1821717"><ele>4.4</ele><time>2026-04-06T07:55:36.834Z</time></trkpt><trkpt lat="45.4854533" lon="12.182325"><ele>4.6</ele><time>2026-04-06T07:55:38.837Z</time></trkpt><trkpt lat="45.4854117" lon="12.1824717"><ele>4.8</ele><time>2026-04-06T07:55:40.836Z</time></trkpt><trkpt lat="45.4853617" lon="12.1826"><ele>5.0</ele><time>2026-04-06T07:55:42.835Z</time></trkpt><trkpt lat="45.4853233" lon="12.18274"><ele>4.4</ele><time>2026-04-06T07:55:44.837Z</time></trkpt><trkpt lat="45.4852817" lon="12.1828733"><ele>3.8</ele><time>2026-04-06T07:55:46.836Z</time></trkpt><trkpt lat="45.48525" lon="12.1830267"><ele>3.2</ele><time>2026-04-06T07:55:48.837Z</time></trkpt><trkpt lat="45.4852283" lon="12.1831783"><ele>2.6</ele><time>2026-04-06T07:55:50.839Z</time></trkpt><trkpt lat="45.4852067" lon="12.1833233"><ele>2.0</ele><time>2026-04-06T07:55:52.837Z</time></trkpt><trkpt lat="45.4851717" lon="12.18347"><ele>2.0</ele><time>2026-04-06T07:55:54.838Z</time></trkpt><trkpt lat="45.4851233" lon="12.1836033"><ele>2.0</ele><time>2026-04-06T07:55:56.838Z</time></trkpt><trkpt lat="45.4850783" lon="12.1837267"><ele>2.0</ele><time>2026-04-06T07:55:58.836Z</time></trkpt><trkpt lat="45.4850583" lon="12.18386"><ele>2.0</ele><time>2026-04-06T07:56:00.835Z</time></trkpt><trkpt lat="45.48505" lon="12.1839917"><ele>2.0</ele><time>2026-04-06T07:56:02.836Z</time></trkpt><trkpt lat="45.4850317" lon="12.184125"><ele>2.2</ele><time>2026-04-06T07:56:04.836Z</time></trkpt><trkpt lat="45.4850083" lon="12.184275"><ele>2.4000000000000004</ele><time>2026-04-06T07:56:06.837Z</time></trkpt><trkpt lat="45.4849933" lon="12.1844233"><ele>2.5999999999999996</ele><time>2026-04-06T07:56:08.837Z</time></trkpt><trkpt lat="45.4849717" lon="12.184575"><ele>2.8</ele><time>2026-04-06T07:56:10.837Z</time></trkpt><trkpt lat="45.484945" lon="12.1847267"><ele>3.0</ele><time>2026-04-06T07:56:12.837Z</time></trkpt><trkpt lat="45.484915" lon="12.18488"><ele>3.0</ele><time>2026-04-06T07:56:14.837Z</time></trkpt><trkpt lat="45.484875" lon="12.1850267"><ele>3.0</ele><time>2026-04-06T07:56:16.837Z</time></trkpt><trkpt lat="45.48485" lon="12.1851967"><ele>3.0</ele><time>2026-04-06T07:56:18.837Z</time></trkpt><trkpt lat="45.4848267" lon="12.18536"><ele>3.0</ele><time>2026-04-06T07:56:20.836Z</time></trkpt><trkpt lat="45.484805" lon="12.1855183"><ele>3.0</ele><time>2026-04-06T07:56:22.836Z</time></trkpt><trkpt lat="45.484785" lon="12.1856733"><ele>3.0</ele><time>2026-04-06T07:56:24.837Z</time></trkpt><trkpt lat="45.4847683" lon="12.1858233"><ele>3.0</ele><time>2026-04-06T07:56:26.837Z</time></trkpt><trkpt lat="45.484745" lon="12.1859767"><ele>3.0</ele><time>2026-04-06T07:56:28.836Z</time></trkpt><trkpt lat="45.4847283" lon="12.1861433"><ele>3.0</ele><time>2026-04-06T07:56:30.836Z</time></trkpt><trkpt lat="45.4847067" lon="12.1863"><ele>3.2</ele><time>2026-04-06T07:56:32.836Z</time></trkpt><trkpt lat="45.484685" lon="12.186455"><ele>3.4</ele><time>2026-04-06T07:56:34.838Z</time></trkpt><trkpt lat="45.4846733" lon="12.1866017"><ele>3.6000000000000005</ele><time>2026-04-06T07:56:36.836Z</time></trkpt><trkpt lat="45.4846533" lon="12.1867567"><ele>3.8000000000000003</ele><time>2026-04-06T07:56:38.836Z</time></trkpt><trkpt lat="45.4846383" lon="12.1869183"><ele>4.0</ele><time>2026-04-06T07:56:40.835Z</time></trkpt><trkpt lat="45.484625" lon="12.1870867"><ele>4.2</ele><time>2026-04-06T07:56:42.836Z</time></trkpt><trkpt lat="45.484605" lon="12.18725"><ele>4.4</ele><time>2026-04-06T07:56:44.836Z</time></trkpt><trkpt lat="45.484585" lon="12.18741"><ele>4.6</ele><time>2026-04-06T07:56:46.836Z</time></trkpt><trkpt lat="45.4845817" lon="12.1875583"><ele>4.8</ele><time>2026-04-06T07:56:48.837Z</time></trkpt><trkpt lat="45.484575" lon="12.1877067"><ele>5.0</ele><time>2026-04-06T07:56:50.837Z</time></trkpt><trkpt lat="45.4845667" lon="12.1878583"><ele>5.0</ele><time>2026-04-06T07:56:52.837Z</time></trkpt><trkpt lat="45.4845583" lon="12.18801"><ele>5.0</ele><time>2026-04-06T07:56:54.837Z</time></trkpt><trkpt lat="45.4845667" lon="12.1881583"><ele>5.0</ele><time>2026-04-06T07:56:56.837Z</time></trkpt><trkpt lat="45.48456" lon="12.1883"><ele>5.0</ele><time>2026-04-06T07:56:58.839Z</time></trkpt><trkpt lat="45.48454" lon="12.1884433"><ele>5.0</ele><time>2026-04-06T07:57:00.834Z</time></trkpt><trkpt lat="45.4845283" lon="12.18859"><ele>5.0</ele><time>2026-04-06T07:57:02.837Z</time></trkpt><trkpt lat="45.4845167" lon="12.1887333"><ele>5.0</ele><time>2026-04-06T07:57:04.837Z</time></trkpt><trkpt lat="45.484505" lon="12.1888833"><ele>5.0</ele><time>2026-04-06T07:57:06.842Z</time></trkpt><trkpt lat="45.4844983" lon="12.18903"><ele>5.0</ele><time>2026-04-06T07:57:08.845Z</time></trkpt><trkpt lat="45.484485" lon="12.18918"><ele>5.0</ele><time>2026-04-06T07:57:10.836Z</time></trkpt><trkpt lat="45.4844767" lon="12.1893333"><ele>5.0</ele><time>2026-04-06T07:57:12.835Z</time></trkpt><trkpt lat="45.4844683" lon="12.1894917"><ele>5.0</ele><time>2026-04-06T07:57:14.838Z</time></trkpt><trkpt lat="45.4844583" lon="12.189645"><ele>5.0</ele><time>2026-04-06T07:57:16.837Z</time></trkpt><trkpt lat="45.4844433" lon="12.189795"><ele>5.0</ele><time>2026-04-06T07:57:18.838Z</time></trkpt><trkpt lat="45.4844317" lon="12.189945"><ele>5.0</ele><time>2026-04-06T07:57:20.836Z</time></trkpt><trkpt lat="45.484425" lon="12.1901"><ele>5.0</ele><time>2026-04-06T07:57:22.836Z</time></trkpt><trkpt lat="45.4844183" lon="12.1902583"><ele>5.0</ele><time>2026-04-06T07:57:24.836Z</time></trkpt><trkpt lat="45.48442" lon="12.19042"><ele>5.0</ele><time>2026-04-06T07:57:26.836Z</time></trkpt><trkpt lat="45.4844217" lon="12.1905783"><ele>5.0</ele><time>2026-04-06T07:57:28.836Z</time></trkpt><trkpt lat="45.4844233" lon="12.1907417"><ele>5.2</ele><time>2026-04-06T07:57:30.837Z</time></trkpt><trkpt lat="45.48442" lon="12.1909083"><ele>5.4</ele><time>2026-04-06T07:57:32.837Z</time></trkpt><trkpt lat="45.4844183" lon="12.191075"><ele>5.6</ele><time>2026-04-06T07:57:34.838Z</time></trkpt><trkpt lat="45.4844067" lon="12.19123"><ele>5.8</ele><time>2026-04-06T07:57:36.836Z</time></trkpt><trkpt lat="45.4843983" lon="12.191375"><ele>6.0</ele><time>2026-04-06T07:57:38.836Z</time></trkpt><trkpt lat="45.4843967" lon="12.1914733"><ele>5.5</ele><time>2026-04-06T07:57:40.837Z</time></trkpt><trkpt lat="45.4844483" lon="12.1915383"><ele>5.0</ele><time>2026-04-06T07:57:47.839Z</time></trkpt><trkpt lat="45.4844933" lon="12.1916533"><ele>4.5</ele><time>2026-04-06T07:57:50.836Z</time></trkpt><trkpt lat="45.4845" lon="12.19179"><ele>4.0</ele><time>2026-04-06T07:57:52.836Z</time></trkpt><trkpt lat="45.4844967" lon="12.191925"><ele>3.5</ele><time>2026-04-06T07:57:54.837Z</time></trkpt><trkpt lat="45.4844983" lon="12.1920533"><ele>3.0</ele><time>2026-04-06T07:57:56.838Z</time></trkpt><trkpt lat="45.484505" lon="12.1921933"><ele>3.0</ele><time>2026-04-06T07:57:58.836Z</time></trkpt><trkpt lat="45.4845033" lon="12.19233"><ele>3.0</ele><time>2026-04-06T07:58:00.836Z</time></trkpt><trkpt lat="45.4845033" lon="12.1924717"><ele>3.0</ele><time>2026-04-06T07:58:02.837Z</time></trkpt><trkpt lat="45.4845283" lon="12.192615"><ele>3.0</ele><time>2026-04-06T07:58:04.835Z</time></trkpt><trkpt lat="45.4845433" lon="12.1927633"><ele>3.0</ele><time>2026-04-06T07:58:06.836Z</time></trkpt><trkpt lat="45.4845567" lon="12.192905"><ele>3.0</ele><time>2026-04-06T07:58:08.837Z</time></trkpt><trkpt lat="45.4845583" lon="12.193065"><ele>3.0</ele><time>2026-04-06T07:58:10.834Z</time></trkpt><trkpt lat="45.484565" lon="12.1932283"><ele>3.0</ele><time>2026-04-06T07:58:12.836Z</time></trkpt><trkpt lat="45.4845817" lon="12.19338"><ele>3.0</ele><time>2026-04-06T07:58:14.836Z</time></trkpt><trkpt lat="45.4845783" lon="12.193525"><ele>3.0</ele><time>2026-04-06T07:58:16.837Z</time></trkpt><trkpt lat="45.4845483" lon="12.1936483"><ele>3.0</ele><time>2026-04-06T07:58:18.837Z</time></trkpt><trkpt lat="45.4845233" lon="12.1937967"><ele>3.0</ele><time>2026-04-06T07:58:20.836Z</time></trkpt><trkpt lat="45.4845267" lon="12.1939517"><ele>3.0</ele><time>2026-04-06T07:58:22.836Z</time></trkpt><trkpt lat="45.4845333" lon="12.1941067"><ele>3.0</ele><time>2026-04-06T07:58:24.835Z</time></trkpt><trkpt lat="45.4845383" lon="12.194265"><ele>3.0</ele><time>2026-04-06T07:58:26.836Z</time></trkpt><trkpt lat="45.48455" lon="12.1944183"><ele>3.25</ele><time>2026-04-06T07:58:28.836Z</time></trkpt><trkpt lat="45.4845617" lon="12.19458"><ele>3.5</ele><time>2026-04-06T07:58:30.837Z</time></trkpt><trkpt lat="45.4845683" lon="12.19474"><ele>3.75</ele><time>2026-04-06T07:58:32.836Z</time></trkpt><trkpt lat="45.48458" lon="12.1948967"><ele>4.0</ele><time>2026-04-06T07:58:34.837Z</time></trkpt><trkpt lat="45.484595" lon="12.19506"><ele>3.5</ele><time>2026-04-06T07:58:36.837Z</time></trkpt><trkpt lat="45.4846033" lon="12.1952217"><ele>3.0</ele><time>2026-04-06T07:58:38.837Z</time></trkpt><trkpt lat="45.48461" lon="12.195385"><ele>2.5</ele><time>2026-04-06T07:58:40.837Z</time></trkpt><trkpt lat="45.4846217" lon="12.1955483"><ele>2.0</ele><time>2026-04-06T07:58:42.836Z</time></trkpt><trkpt lat="45.4846333" lon="12.1957083"><ele>2.0</ele><time>2026-04-06T07:58:44.837Z</time></trkpt><trkpt lat="45.484645" lon="12.1958767"><ele>2.0</ele><time>2026-04-06T07:58:46.836Z</time></trkpt><trkpt lat="45.4846517" lon="12.1960417"><ele>2.0</ele><time>2026-04-06T07:58:48.838Z</time></trkpt><trkpt lat="45.4846533" lon="12.1961967"><ele>2.0</ele><time>2026-04-06T07:58:50.836Z</time></trkpt><trkpt lat="45.48466" lon="12.19635"><ele>2.2</ele><time>2026-04-06T07:58:52.838Z</time></trkpt><trkpt lat="45.48467" lon="12.1965133"><ele>2.4000000000000004</ele><time>2026-04-06T07:58:54.836Z</time></trkpt><trkpt lat="45.48468" lon="12.1966733"><ele>2.5999999999999996</ele><time>2026-04-06T07:58:56.837Z</time></trkpt><trkpt lat="45.484685" lon="12.1968283"><ele>2.8</ele><time>2026-04-06T07:58:58.836Z</time></trkpt><trkpt lat="45.4846933" lon="12.1969817"><ele>3.0</ele><time>2026-04-06T07:59:00.835Z</time></trkpt><trkpt lat="45.4847033" lon="12.197145"><ele>3.0</ele><time>2026-04-06T07:59:02.835Z</time></trkpt><trkpt lat="45.4847167" lon="12.197305"><ele>3.0</ele><time>2026-04-06T07:59:04.837Z</time></trkpt><trkpt lat="45.484725" lon="12.1974683"><ele>3.0</ele><time>2026-04-06T07:59:06.835Z</time></trkpt><trkpt lat="45.48473" lon="12.197625"><ele>3.0</ele><time>2026-04-06T07:59:08.836Z</time></trkpt><trkpt lat="45.48474" lon="12.1977767"><ele>3.0</ele><time>2026-04-06T07:59:10.837Z</time></trkpt><trkpt lat="45.48476" lon="12.1979333"><ele>3.0</ele><time>2026-04-06T07:59:12.837Z</time></trkpt><trkpt lat="45.484785" lon="12.1980917"><ele>3.0</ele><time>2026-04-06T07:59:14.835Z</time></trkpt><trkpt lat="45.4847983" lon="12.1982517"><ele>3.0</ele><time>2026-04-06T07:59:16.836Z</time></trkpt><trkpt lat="45.4848133" lon="12.1984117"><ele>3.0</ele><time>2026-04-06T07:59:18.836Z</time></trkpt><trkpt lat="45.4848267" lon="12.1985767"><ele>3.0</ele><time>2026-04-06T07:59:20.836Z</time></trkpt><trkpt lat="45.484845" lon="12.198735"><ele>3.0</ele><time>2026-04-06T07:59:22.836Z</time></trkpt><trkpt lat="45.4848533" lon="12.19889"><ele>3.0</ele><time>2026-04-06T07:59:24.836Z</time></trkpt><trkpt lat="45.4848617" lon="12.19903"><ele>3.0</ele><time>2026-04-06T07:59:26.836Z</time></trkpt><trkpt lat="45.484875" lon="12.199175"><ele>3.0</ele><time>2026-04-06T07:59:28.836Z</time></trkpt><trkpt lat="45.484885" lon="12.199305"><ele>3.0</ele><time>2026-04-06T07:59:30.837Z</time></trkpt><trkpt lat="45.4848917" lon="12.199435"><ele>3.0</ele><time>2026-04-06T07:59:32.837Z</time></trkpt><trkpt lat="45.4849017" lon="12.1995833"><ele>3.0</ele><time>2026-04-06T07:59:34.836Z</time></trkpt><trkpt lat="45.4849133" lon="12.1997383"><ele>3.0</ele><time>2026-04-06T07:59:36.837Z</time></trkpt><trkpt lat="45.4849233" lon="12.1998933"><ele>3.0</ele><time>2026-04-06T07:59:38.837Z</time></trkpt><trkpt lat="45.4849317" lon="12.20004"><ele>3.2</ele><time>2026-04-06T07:59:40.837Z</time></trkpt><trkpt lat="45.4849417" lon="12.200195"><ele>3.4</ele><time>2026-04-06T07:59:42.836Z</time></trkpt><trkpt lat="45.4849483" lon="12.2003483"><ele>3.6000000000000005</ele><time>2026-04-06T07:59:44.837Z</time></trkpt><trkpt lat="45.4849517" lon="12.2005067"><ele>3.8000000000000003</ele><time>2026-04-06T07:59:46.836Z</time></trkpt><trkpt lat="45.4849567" lon="12.2006617"><ele>4.0</ele><time>2026-04-06T07:59:48.837Z</time></trkpt><trkpt lat="45.48496" lon="12.200815"><ele>4.0</ele><time>2026-04-06T07:59:50.837Z</time></trkpt><trkpt lat="45.4849517" lon="12.2009717"><ele>4.0</ele><time>2026-04-06T07:59:52.837Z</time></trkpt><trkpt lat="45.4849433" lon="12.2011317"><ele>4.0</ele><time>2026-04-06T07:59:54.837Z</time></trkpt><trkpt lat="45.4849383" lon="12.201285"><ele>4.0</ele><time>2026-04-06T07:59:56.836Z</time></trkpt><trkpt lat="45.4849367" lon="12.20144"><ele>4.0</ele><time>2026-04-06T07:59:58.837Z</time></trkpt><trkpt lat="45.4849383" lon="12.201595"><ele>4.0</ele><time>2026-04-06T08:00:00.837Z</time></trkpt><trkpt lat="45.48494" lon="12.2017467"><ele>4.0</ele><time>2026-04-06T08:00:02.836Z</time></trkpt><trkpt lat="45.4849417" lon="12.2019017"><ele>4.0</ele><time>2026-04-06T08:00:04.836Z</time></trkpt><trkpt lat="45.4849383" lon="12.2020633"><ele>4.0</ele><time>2026-04-06T08:00:06.836Z</time></trkpt><trkpt lat="45.4849283" lon="12.2022283"><ele>4.0</ele><time>2026-04-06T08:00:08.836Z</time></trkpt><trkpt lat="45.4849167" lon="12.20239"><ele>3.5</ele><time>2026-04-06T08:00:10.837Z</time></trkpt><trkpt lat="45.4848967" lon="12.2025567"><ele>3.0</ele><time>2026-04-06T08:00:12.837Z</time></trkpt><trkpt lat="45.484875" lon="12.202725"><ele>2.5</ele><time>2026-04-06T08:00:14.837Z</time></trkpt><trkpt lat="45.48486" lon="12.2028967"><ele>2.0</ele><time>2026-04-06T08:00:16.838Z</time></trkpt><trkpt lat="45.4848367" lon="12.2030633"><ele>2.0</ele><time>2026-04-06T08:00:18.837Z</time></trkpt><trkpt lat="45.4848233" lon="12.2032333"><ele>2.0</ele><time>2026-04-06T08:00:20.837Z</time></trkpt><trkpt lat="45.48481" lon="12.2034083"><ele>2.0</ele><time>2026-04-06T08:00:22.837Z</time></trkpt><trkpt lat="45.48479" lon="12.2035783"><ele>2.0</ele><time>2026-04-06T08:00:24.837Z</time></trkpt><trkpt lat="45.4847717" lon="12.20375"><ele>2.0</ele><time>2026-04-06T08:00:26.837Z</time></trkpt><trkpt lat="45.484765" lon="12.2038417"><ele>2.0</ele><time>2026-04-06T08:00:27.837Z</time></trkpt><trkpt lat="45.48476" lon="12.2039333"><ele>2.0</ele><time>2026-04-06T08:00:28.836Z</time></trkpt><trkpt lat="45.4847533" lon="12.204115"><ele>2.0</ele><time>2026-04-06T08:00:30.838Z</time></trkpt><trkpt lat="45.4847467" lon="12.2042917"><ele>2.0</ele><time>2026-04-06T08:00:32.838Z</time></trkpt><trkpt lat="45.4847367" lon="12.2044633"><ele>2.0</ele><time>2026-04-06T08:00:34.837Z</time></trkpt><trkpt lat="45.48472" lon="12.20463"><ele>2.0</ele><time>2026-04-06T08:00:36.837Z</time></trkpt><trkpt lat="45.48471" lon="12.2048017"><ele>2.0</ele><time>2026-04-06T08:00:38.837Z</time></trkpt><trkpt lat="45.4847" lon="12.204965"><ele>2.0</ele><time>2026-04-06T08:00:40.837Z</time></trkpt><trkpt lat="45.4846917" lon="12.2051367"><ele>1.9999999999999998</ele><time>2026-04-06T08:00:42.838Z</time></trkpt><trkpt lat="45.4846867" lon="12.2053067"><ele>2.0</ele><time>2026-04-06T08:00:44.836Z</time></trkpt><trkpt lat="45.48468" lon="12.2053967"><ele>2.0</ele><time>2026-04-06T08:00:45.836Z</time></trkpt><trkpt lat="45.4846717" lon="12.2054867"><ele>2.0</ele><time>2026-04-06T08:00:46.837Z</time></trkpt><trkpt lat="45.48467" lon="12.2055767"><ele>1.9999999999999998</ele><time>2026-04-06T08:00:47.837Z</time></trkpt><trkpt lat="45.4846717" lon="12.20567"><ele>2.0</ele><time>2026-04-06T08:00:48.838Z</time></trkpt><trkpt lat="45.4846733" lon="12.2058467"><ele>2.0</ele><time>2026-04-06T08:00:50.837Z</time></trkpt><trkpt lat="45.4846833" lon="12.206025"><ele>2.0</ele><time>2026-04-06T08:00:52.836Z</time></trkpt><trkpt lat="45.4846817" lon="12.2061167"><ele>2.0</ele><time>2026-04-06T08:00:53.84Z</time></trkpt><trkpt lat="45.4846917" lon="12.206295"><ele>2.0</ele><time>2026-04-06T08:00:55.837Z</time></trkpt><trkpt lat="45.4847017" lon="12.2063867"><ele>2.0</ele><time>2026-04-06T08:00:56.835Z</time></trkpt><trkpt lat="45.48471" lon="12.2065633"><ele>2.2</ele><time>2026-04-06T08:00:58.836Z</time></trkpt><trkpt lat="45.4847167" lon="12.2066533"><ele>2.4000000000000004</ele><time>2026-04-06T08:00:59.838Z</time></trkpt><trkpt lat="45.4847283" lon="12.2068267"><ele>2.5999999999999996</ele><time>2026-04-06T08:01:01.837Z</time></trkpt><trkpt lat="45.4847333" lon="12.2069217"><ele>2.8</ele><time>2026-04-06T08:01:02.836Z</time></trkpt><trkpt lat="45.48474" lon="12.2070967"><ele>3.0</ele><time>2026-04-06T08:01:04.836Z</time></trkpt><trkpt lat="45.4847517" lon="12.2072683"><ele>2.8571428571428568</ele><time>2026-04-06T08:01:06.836Z</time></trkpt><trkpt lat="45.48477" lon="12.2074383"><ele>2.7142857142857144</ele><time>2026-04-06T08:01:08.838Z</time></trkpt><trkpt lat="45.48478" lon="12.2075283"><ele>2.571428571428571</ele><time>2026-04-06T08:01:09.836Z</time></trkpt><trkpt lat="45.484795" lon="12.2076183"><ele>2.4285714285714284</ele><time>2026-04-06T08:01:10.837Z</time></trkpt><trkpt lat="45.4848083" lon="12.2077083"><ele>2.2857142857142856</ele><time>2026-04-06T08:01:11.838Z</time></trkpt><trkpt lat="45.484815" lon="12.2078"><ele>2.142857142857143</ele><time>2026-04-06T08:01:12.837Z</time></trkpt><trkpt lat="45.4848217" lon="12.2078917"><ele>2.0</ele><time>2026-04-06T08:01:13.838Z</time></trkpt><trkpt lat="45.4848283" lon="12.2079817"><ele>2.0</ele><time>2026-04-06T08:01:14.836Z</time></trkpt><trkpt lat="45.4848467" lon="12.2081583"><ele>2.0</ele><time>2026-04-06T08:01:16.834Z</time></trkpt><trkpt lat="45.4848617" lon="12.2083267"><ele>2.0</ele><time>2026-04-06T08:01:18.836Z</time></trkpt><trkpt lat="45.4848767" lon="12.2084983"><ele>2.0</ele><time>2026-04-06T08:01:20.836Z</time></trkpt><trkpt lat="45.4848933" lon="12.2086683"><ele>2.2</ele><time>2026-04-06T08:01:22.836Z</time></trkpt><trkpt lat="45.4849067" lon="12.208835"><ele>2.4000000000000004</ele><time>2026-04-06T08:01:24.838Z</time></trkpt><trkpt lat="45.4849183" lon="12.208925"><ele>2.5999999999999996</ele><time>2026-04-06T08:01:25.837Z</time></trkpt><trkpt lat="45.484925" lon="12.2090883"><ele>2.8</ele><time>2026-04-06T08:01:27.835Z</time></trkpt><trkpt lat="45.4849367" lon="12.2092367"><ele>3.0</ele><time>2026-04-06T08:01:29.838Z</time></trkpt><trkpt lat="45.4849533" lon="12.2093833"><ele>3.1666666666666665</ele><time>2026-04-06T08:01:31.838Z</time></trkpt><trkpt lat="45.4849683" lon="12.20952"><ele>3.333333333333333</ele><time>2026-04-06T08:01:33.837Z</time></trkpt><trkpt lat="45.48498" lon="12.2096317"><ele>3.5</ele><time>2026-04-06T08:01:35.837Z</time></trkpt><trkpt lat="45.4849933" lon="12.2097367"><ele>3.6666666666666665</ele><time>2026-04-06T08:01:38.836Z</time></trkpt><trkpt lat="45.4850133" lon="12.209845"><ele>3.833333333333333</ele><time>2026-04-06T08:01:41.838Z</time></trkpt><trkpt lat="45.4850167" lon="12.2099833"><ele>4.0</ele><time>2026-04-06T08:01:44.837Z</time></trkpt><trkpt lat="45.48502" lon="12.2101017"><ele>4.0</ele><time>2026-04-06T08:01:46.836Z</time></trkpt><trkpt lat="45.4850267" lon="12.2102283"><ele>4.0</ele><time>2026-04-06T08:01:48.837Z</time></trkpt><trkpt lat="45.4850383" lon="12.2103567"><ele>4.0</ele><time>2026-04-06T08:01:50.839Z</time></trkpt><trkpt lat="45.4850517" lon="12.2104967"><ele>4.0</ele><time>2026-04-06T08:01:52.836Z</time></trkpt><trkpt lat="45.4850667" lon="12.210645"><ele>4.0</ele><time>2026-04-06T08:01:54.837Z</time></trkpt><trkpt lat="45.4850767" lon="12.2107983"><ele>4.2</ele><time>2026-04-06T08:01:56.837Z</time></trkpt><trkpt lat="45.4850817" lon="12.2109483"><ele>4.4</ele><time>2026-04-06T08:01:58.838Z</time></trkpt><trkpt lat="45.4850967" lon="12.2111"><ele>4.6</ele><time>2026-04-06T08:02:00.836Z</time></trkpt><trkpt lat="45.4850983" lon="12.2112417"><ele>4.8</ele><time>2026-04-06T08:02:02.837Z</time></trkpt><trkpt lat="45.485105" lon="12.2113867"><ele>5.0</ele><time>2026-04-06T08:02:04.836Z</time></trkpt><trkpt lat="45.4851" lon="12.2115433"><ele>5.0</ele><time>2026-04-06T08:02:06.838Z</time></trkpt><trkpt lat="45.4851067" lon="12.2116833"><ele>5.0</ele><time>2026-04-06T08:02:08.836Z</time></trkpt><trkpt lat="45.48512" lon="12.211835"><ele>5.0</ele><time>2026-04-06T08:02:10.837Z</time></trkpt><trkpt lat="45.4851317" lon="12.2119967"><ele>5.0</ele><time>2026-04-06T08:02:12.835Z</time></trkpt><trkpt lat="45.485135" lon="12.2121667"><ele>5.0</ele><time>2026-04-06T08:02:14.836Z</time></trkpt><trkpt lat="45.4851417" lon="12.212335"><ele>5.0</ele><time>2026-04-06T08:02:16.837Z</time></trkpt><trkpt lat="45.4851583" lon="12.2125017"><ele>5.0</ele><time>2026-04-06T08:02:18.836Z</time></trkpt><trkpt lat="45.4851867" lon="12.2126633"><ele>5.0</ele><time>2026-04-06T08:02:20.836Z</time></trkpt><trkpt lat="45.4852083" lon="12.2128317"><ele>5.0</ele><time>2026-04-06T08:02:22.837Z</time></trkpt><trkpt lat="45.4852317" lon="12.2129983"><ele>4.5</ele><time>2026-04-06T08:02:24.837Z</time></trkpt><trkpt lat="45.485245" lon="12.2131617"><ele>4.0</ele><time>2026-04-06T08:02:26.836Z</time></trkpt><trkpt lat="45.485255" lon="12.2133283"><ele>3.5</ele><time>2026-04-06T08:02:28.836Z</time></trkpt><trkpt lat="45.4852783" lon="12.21349"><ele>3.0</ele><time>2026-04-06T08:02:30.837Z</time></trkpt><trkpt lat="45.4852933" lon="12.213655"><ele>3.0</ele><time>2026-04-06T08:02:32.835Z</time></trkpt><trkpt lat="45.485295" lon="12.2138167"><ele>3.0</ele><time>2026-04-06T08:02:34.836Z</time></trkpt><trkpt lat="45.485295" lon="12.2139817"><ele>3.0</ele><time>2026-04-06T08:02:36.836Z</time></trkpt><trkpt lat="45.4853017" lon="12.21414"><ele>3.0</ele><time>2026-04-06T08:02:38.836Z</time></trkpt><trkpt lat="45.4853017" lon="12.2142983"><ele>3.5</ele><time>2026-04-06T08:02:40.837Z</time></trkpt><trkpt lat="45.4853" lon="12.2144583"><ele>4.0</ele><time>2026-04-06T08:02:42.837Z</time></trkpt><trkpt lat="45.4853017" lon="12.214625"><ele>4.5</ele><time>2026-04-06T08:02:44.836Z</time></trkpt><trkpt lat="45.4853217" lon="12.214795"><ele>5.0</ele><time>2026-04-06T08:02:46.836Z</time></trkpt><trkpt lat="45.485335" lon="12.214975"><ele>5.0</ele><time>2026-04-06T08:02:48.837Z</time></trkpt><trkpt lat="45.485355" lon="12.21515"><ele>5.0</ele><time>2026-04-06T08:02:50.836Z</time></trkpt><trkpt lat="45.4853717" lon="12.215315"><ele>5.0</ele><time>2026-04-06T08:02:52.836Z</time></trkpt><trkpt lat="45.4853917" lon="12.2154783"><ele>5.0</ele><time>2026-04-06T08:02:54.839Z</time></trkpt><trkpt lat="45.4853983" lon="12.215645"><ele>4.75</ele><time>2026-04-06T08:02:56.838Z</time></trkpt><trkpt lat="45.4854183" lon="12.2158133"><ele>4.5</ele><time>2026-04-06T08:02:58.837Z</time></trkpt><trkpt lat="45.48543" lon="12.2159767"><ele>4.25</ele><time>2026-04-06T08:03:00.84Z</time></trkpt><trkpt lat="45.48545" lon="12.2161433"><ele>4.0</ele><time>2026-04-06T08:03:02.837Z</time></trkpt><trkpt lat="45.485465" lon="12.216305"><ele>4.0</ele><time>2026-04-06T08:03:04.837Z</time></trkpt><trkpt lat="45.4854833" lon="12.216465"><ele>4.0</ele><time>2026-04-06T08:03:06.836Z</time></trkpt><trkpt lat="45.4855017" lon="12.2166267"><ele>4.0</ele><time>2026-04-06T08:03:08.836Z</time></trkpt><trkpt lat="45.485515" lon="12.2167817"><ele>4.0</ele><time>2026-04-06T08:03:10.836Z</time></trkpt><trkpt lat="45.4855283" lon="12.2169483"><ele>4.0</ele><time>2026-04-06T08:03:12.838Z</time></trkpt><trkpt lat="45.4855483" lon="12.2171067"><ele>4.0</ele><time>2026-04-06T08:03:14.837Z</time></trkpt><trkpt lat="45.485565" lon="12.2172683"><ele>4.0</ele><time>2026-04-06T08:03:16.835Z</time></trkpt><trkpt lat="45.4855833" lon="12.2174283"><ele>4.0</ele><time>2026-04-06T08:03:18.836Z</time></trkpt><trkpt lat="45.4855917" lon="12.2175917"><ele>4.2</ele><time>2026-04-06T08:03:20.836Z</time></trkpt><trkpt lat="45.4856017" lon="12.2177517"><ele>4.4</ele><time>2026-04-06T08:03:22.836Z</time></trkpt><trkpt lat="45.4856" lon="12.2179083"><ele>4.6</ele><time>2026-04-06T08:03:24.836Z</time></trkpt><trkpt lat="45.4856033" lon="12.2180583"><ele>4.8</ele><time>2026-04-06T08:03:26.837Z</time></trkpt><trkpt lat="45.4856133" lon="12.21821"><ele>5.0</ele><time>2026-04-06T08:03:28.837Z</time></trkpt><trkpt lat="45.4856083" lon="12.21837"><ele>4.75</ele><time>2026-04-06T08:03:30.838Z</time></trkpt><trkpt lat="45.4856067" lon="12.2185383"><ele>4.5</ele><time>2026-04-06T08:03:32.836Z</time></trkpt><trkpt lat="45.485605" lon="12.2187083"><ele>4.25</ele><time>2026-04-06T08:03:34.835Z</time></trkpt><trkpt lat="45.4856067" lon="12.21887"><ele>4.0</ele><time>2026-04-06T08:03:36.835Z</time></trkpt><trkpt lat="45.4856133" lon="12.2190367"><ele>4.0</ele><time>2026-04-06T08:03:38.839Z</time></trkpt><trkpt lat="45.4856183" lon="12.219185"><ele>4.0</ele><time>2026-04-06T08:03:40.836Z</time></trkpt><trkpt lat="45.485625" lon="12.21934"><ele>4.0</ele><time>2026-04-06T08:03:42.837Z</time></trkpt><trkpt lat="45.4856267" lon="12.2195017"><ele>4.0</ele><time>2026-04-06T08:03:44.835Z</time></trkpt><trkpt lat="45.4856283" lon="12.219605"><ele>4.0</ele><time>2026-04-06T08:03:46.837Z</time></trkpt><trkpt lat="45.4856333" lon="12.2197017"><ele>4.166666666666666</ele><time>2026-04-06T08:03:47.839Z</time></trkpt><trkpt lat="45.48565" lon="12.2198567"><ele>4.333333333333333</ele><time>2026-04-06T08:03:49.836Z</time></trkpt><trkpt lat="45.4856717" lon="12.2199817"><ele>4.5</ele><time>2026-04-06T08:03:51.835Z</time></trkpt><trkpt lat="45.485705" lon="12.2200717"><ele>4.666666666666667</ele><time>2026-04-06T08:03:54.838Z</time></trkpt><trkpt lat="45.4857433" lon="12.220145"><ele>4.833333333333334</ele><time>2026-04-06T08:03:58.836Z</time></trkpt><trkpt lat="45.4857983" lon="12.22023"><ele>5.0</ele><time>2026-04-06T08:04:02.837Z</time></trkpt><trkpt lat="45.48582" lon="12.22033"><ele>5.0</ele><time>2026-04-06T08:04:05.837Z</time></trkpt><trkpt lat="45.4858517" lon="12.2204633"><ele>5.0</ele><time>2026-04-06T08:04:08.836Z</time></trkpt><trkpt lat="45.48587" lon="12.2205633"><ele>5.0</ele><time>2026-04-06T08:04:10.835Z</time></trkpt><trkpt lat="45.4858867" lon="12.220675"><ele>5.0</ele><time>2026-04-06T08:04:12.836Z</time></trkpt><trkpt lat="45.48587" lon="12.22079"><ele>5.0</ele><time>2026-04-06T08:04:14.836Z</time></trkpt><trkpt lat="45.4858167" lon="12.2208917"><ele>5.0</ele><time>2026-04-06T08:04:16.837Z</time></trkpt><trkpt lat="45.4857383" lon="12.22097"><ele>5.2</ele><time>2026-04-06T08:04:18.836Z</time></trkpt><trkpt lat="45.485665" lon="12.221065"><ele>5.4</ele><time>2026-04-06T08:04:20.836Z</time></trkpt><trkpt lat="45.4855917" lon="12.22117"><ele>5.6</ele><time>2026-04-06T08:04:22.836Z</time></trkpt><trkpt lat="45.4855133" lon="12.2212917"><ele>5.8</ele><time>2026-04-06T08:04:24.835Z</time></trkpt><trkpt lat="45.48546" lon="12.22143"><ele>6.0</ele><time>2026-04-06T08:04:26.836Z</time></trkpt><trkpt lat="45.4854333" lon="12.2215167"><ele>5.3999999999999995</ele><time>2026-04-06T08:04:27.834Z</time></trkpt><trkpt lat="45.485375" lon="12.22165"><ele>4.8</ele><time>2026-04-06T08:04:29.837Z</time></trkpt><trkpt lat="45.485305" lon="12.2217833"><ele>4.199999999999999</ele><time>2026-04-06T08:04:31.836Z</time></trkpt><trkpt lat="45.4852483" lon="12.221915"><ele>3.5999999999999996</ele><time>2026-04-06T08:04:33.835Z</time></trkpt><trkpt lat="45.4852067" lon="12.222055"><ele>3.0</ele><time>2026-04-06T08:04:35.837Z</time></trkpt><trkpt lat="45.4851533" lon="12.222195"><ele>2.6</ele><time>2026-04-06T08:04:37.836Z</time></trkpt><trkpt lat="45.4851017" lon="12.2223317"><ele>2.1999999999999997</ele><time>2026-04-06T08:04:39.834Z</time></trkpt><trkpt lat="45.4850567" lon="12.2224567"><ele>1.8</ele><time>2026-04-06T08:04:41.837Z</time></trkpt><trkpt lat="45.485005" lon="12.2225833"><ele>1.4</ele><time>2026-04-06T08:04:43.84Z</time></trkpt><trkpt lat="45.4849517" lon="12.2227183"><ele>1.0</ele><time>2026-04-06T08:04:45.835Z</time></trkpt><trkpt lat="45.4848967" lon="12.2228583"><ele>1.0</ele><time>2026-04-06T08:04:47.837Z</time></trkpt><trkpt lat="45.484845" lon="12.222995"><ele>1.0</ele><time>2026-04-06T08:04:49.838Z</time></trkpt><trkpt lat="45.4847917" lon="12.2231367"><ele>1.0</ele><time>2026-04-06T08:04:51.835Z</time></trkpt><trkpt lat="45.4847383" lon="12.2232717"><ele>1.0</ele><time>2026-04-06T08:04:53.836Z</time></trkpt><trkpt lat="45.4846917" lon="12.2234"><ele>1.0</ele><time>2026-04-06T08:04:55.836Z</time></trkpt><trkpt lat="45.4846467" lon="12.22354"><ele>1.0</ele><time>2026-04-06T08:04:57.837Z</time></trkpt><trkpt lat="45.4846033" lon="12.2236783"><ele>1.0</ele><time>2026-04-06T08:04:59.835Z</time></trkpt><trkpt lat="45.484555" lon="12.2238167"><ele>1.0</ele><time>2026-04-06T08:05:01.836Z</time></trkpt><trkpt lat="45.4845" lon="12.223965"><ele>1.0</ele><time>2026-04-06T08:05:03.834Z</time></trkpt><trkpt lat="45.48444" lon="12.224105"><ele>1.0</ele><time>2026-04-06T08:05:05.836Z</time></trkpt><trkpt lat="45.4843883" lon="12.2242383"><ele>1.0</ele><time>2026-04-06T08:05:07.837Z</time></trkpt><trkpt lat="45.4843333" lon="12.2243717"><ele>1.0</ele><time>2026-04-06T08:05:09.834Z</time></trkpt><trkpt lat="45.4842817" lon="12.2245117"><ele>1.0</ele><time>2026-04-06T08:05:11.837Z</time></trkpt><trkpt lat="45.4842267" lon="12.2246517"><ele>1.0</ele><time>2026-04-06T08:05:13.836Z</time></trkpt><trkpt lat="45.48417" lon="12.2247883"><ele>1.0</ele><time>2026-04-06T08:05:15.834Z</time></trkpt><trkpt lat="45.4841083" lon="12.22493"><ele>1.0</ele><time>2026-04-06T08:05:17.836Z</time></trkpt><trkpt lat="45.4840617" lon="12.2250767"><ele>1.0</ele><time>2026-04-06T08:05:19.834Z</time></trkpt><trkpt lat="45.48401" lon="12.2252017"><ele>1.0</ele><time>2026-04-06T08:05:21.835Z</time></trkpt><trkpt lat="45.4839183" lon="12.22528"><ele>1.0</ele><time>2026-04-06T08:05:23.838Z</time></trkpt><trkpt lat="45.4838167" lon="12.2253017"><ele>1.0</ele><time>2026-04-06T08:05:25.837Z</time></trkpt><trkpt lat="45.48373" lon="12.225375"><ele>0.9999999999999999</ele><time>2026-04-06T08:05:27.838Z</time></trkpt><trkpt lat="45.48366" lon="12.225505"><ele>1.0</ele><time>2026-04-06T08:05:29.839Z</time></trkpt><trkpt lat="45.4836283" lon="12.2255867"><ele>1.0</ele><time>2026-04-06T08:05:30.836Z</time></trkpt><trkpt lat="45.4836067" lon="12.2256733"><ele>1.0</ele><time>2026-04-06T08:05:31.837Z</time></trkpt><trkpt lat="45.483585" lon="12.2257583"><ele>0.9999999999999999</ele><time>2026-04-06T08:05:32.835Z</time></trkpt><trkpt lat="45.483555" lon="12.2259283"><ele>1.0</ele><time>2026-04-06T08:05:34.837Z</time></trkpt><trkpt lat="45.4835417" lon="12.22602"><ele>0.8</ele><time>2026-04-06T08:05:35.84Z</time></trkpt><trkpt lat="45.4835217" lon="12.226195"><ele>0.6000000000000001</ele><time>2026-04-06T08:05:37.84Z</time></trkpt><trkpt lat="45.483525" lon="12.2263317"><ele>0.4</ele><time>2026-04-06T08:05:39.837Z</time></trkpt><trkpt lat="45.483555" lon="12.2264583"><ele>0.2</ele><time>2026-04-06T08:05:41.837Z</time></trkpt><trkpt lat="45.4835967" lon="12.226555"><ele>0.0</ele><time>2026-04-06T08:05:43.837Z</time></trkpt><trkpt lat="45.4836683" lon="12.2266517"><ele>0.0</ele><time>2026-04-06T08:05:45.837Z</time></trkpt><trkpt lat="45.48371" lon="12.22674"><ele>0.0</ele><time>2026-04-06T08:05:47.841Z</time></trkpt><trkpt lat="45.4837717" lon="12.226815"><ele>0.0</ele><time>2026-04-06T08:05:49.838Z</time></trkpt><trkpt lat="45.4838217" lon="12.2268833"><ele>0.0</ele><time>2026-04-06T08:05:52.835Z</time></trkpt><trkpt lat="45.4838783" lon="12.2268217"><ele>0.0</ele><time>2026-04-06T08:05:55.828Z</time></trkpt><trkpt lat="45.4839233" lon="12.226725"><ele>0.0</ele><time>2026-04-06T08:05:57.835Z</time></trkpt><trkpt lat="45.4839633" lon="12.2266083"><ele>-0.2</ele><time>2026-04-06T08:05:59.837Z</time></trkpt><trkpt lat="45.4840033" lon="12.22648"><ele>-0.4</ele><time>2026-04-06T08:06:01.835Z</time></trkpt><trkpt lat="45.4840417" lon="12.22635"><ele>-0.6000000000000001</ele><time>2026-04-06T08:06:03.835Z</time></trkpt><trkpt lat="45.484085" lon="12.2262117"><ele>-0.8</ele><time>2026-04-06T08:06:05.835Z</time></trkpt><trkpt lat="45.4841383" lon="12.2260817"><ele>-1.0</ele><time>2026-04-06T08:06:07.835Z</time></trkpt><trkpt lat="45.484205" lon="12.2259683"><ele>-1.0</ele><time>2026-04-06T08:06:09.836Z</time></trkpt><trkpt lat="45.4842783" lon="12.225865"><ele>-1.0</ele><time>2026-04-06T08:06:11.837Z</time></trkpt><trkpt lat="45.484355" lon="12.2257683"><ele>-1.0</ele><time>2026-04-06T08:06:13.837Z</time></trkpt><trkpt lat="45.48444" lon="12.2256767"><ele>-1.0</ele><time>2026-04-06T08:06:15.834Z</time></trkpt><trkpt lat="45.4845233" lon="12.2255983"><ele>-1.0</ele><time>2026-04-06T08:06:17.835Z</time></trkpt><trkpt lat="45.484625" lon="12.2255317"><ele>-0.20000000000000007</ele><time>2026-04-06T08:06:19.838Z</time></trkpt><trkpt lat="45.4847317" lon="12.2254967"><ele>0.5999999999999999</ele><time>2026-04-06T08:06:21.834Z</time></trkpt><trkpt lat="45.4848383" lon="12.2254867"><ele>1.4</ele><time>2026-04-06T08:06:23.835Z</time></trkpt><trkpt lat="45.48495" lon="12.22547"><ele>2.1999999999999997</ele><time>2026-04-06T08:06:25.837Z</time></trkpt><trkpt lat="45.485055" lon="12.22545"><ele>3.0</ele><time>2026-04-06T08:06:27.836Z</time></trkpt><trkpt lat="45.485155" lon="12.22542"><ele>3.0</ele><time>2026-04-06T08:06:29.836Z</time></trkpt><trkpt lat="45.4852683" lon="12.2253967"><ele>3.0</ele><time>2026-04-06T08:06:31.835Z</time></trkpt><trkpt lat="45.48538" lon="12.2253533"><ele>3.0</ele><time>2026-04-06T08:06:33.837Z</time></trkpt><trkpt lat="45.4854933" lon="12.2253133"><ele>3.0</ele><time>2026-04-06T08:06:35.838Z</time></trkpt><trkpt lat="45.4856033" lon="12.22528"><ele>2.8</ele><time>2026-04-06T08:06:37.835Z</time></trkpt><trkpt lat="45.485715" lon="12.2252467"><ele>2.5999999999999996</ele><time>2026-04-06T08:06:39.834Z</time></trkpt><trkpt lat="45.4858233" lon="12.2252133"><ele>2.4000000000000004</ele><time>2026-04-06T08:06:41.837Z</time></trkpt><trkpt lat="45.4859317" lon="12.2251733"><ele>2.2</ele><time>2026-04-06T08:06:43.836Z</time></trkpt><trkpt lat="45.4860367" lon="12.2251367"><ele>2.0</ele><time>2026-04-06T08:06:45.835Z</time></trkpt><trkpt lat="45.4861433" lon="12.2250967"><ele>2.0</ele><time>2026-04-06T08:06:47.838Z</time></trkpt><trkpt lat="45.4862467" lon="12.2250583"><ele>2.0</ele><time>2026-04-06T08:06:49.837Z</time></trkpt><trkpt lat="45.4863517" lon="12.2250567"><ele>2.0</ele><time>2026-04-06T08:06:51.835Z</time></trkpt><trkpt lat="45.4864433" lon="12.2251133"><ele>2.0</ele><time>2026-04-06T08:06:53.837Z</time></trkpt><trkpt lat="45.4865333" lon="12.225175"><ele>2.0</ele><time>2026-04-06T08:06:55.836Z</time></trkpt><trkpt lat="45.4866233" lon="12.2252383"><ele>2.0</ele><time>2026-04-06T08:06:57.835Z</time></trkpt><trkpt lat="45.48669" lon="12.2253233"><ele>2.0</ele><time>2026-04-06T08:06:59.836Z</time></trkpt><trkpt lat="45.4867017" lon="12.2254433"><ele>2.0</ele><time>2026-04-06T08:07:01.837Z</time></trkpt><trkpt lat="45.4866817" lon="12.2255683"><ele>2.0</ele><time>2026-04-06T08:07:03.835Z</time></trkpt><trkpt lat="45.4866617" lon="12.2256933"><ele>2.0</ele><time>2026-04-06T08:07:05.837Z</time></trkpt><trkpt lat="45.4866367" lon="12.225825"><ele>2.6</ele><time>2026-04-06T08:07:07.834Z</time></trkpt><trkpt lat="45.4866233" lon="12.2259633"><ele>3.2</ele><time>2026-04-06T08:07:09.834Z</time></trkpt><trkpt lat="45.486605" lon="12.226095"><ele>3.8</ele><time>2026-04-06T08:07:11.836Z</time></trkpt><trkpt lat="45.48658" lon="12.2262317"><ele>4.4</ele><time>2026-04-06T08:07:13.834Z</time></trkpt><trkpt lat="45.48654" lon="12.2263783"><ele>5.0</ele><time>2026-04-06T08:07:15.835Z</time></trkpt><trkpt lat="45.4865033" lon="12.226515"><ele>5.0</ele><time>2026-04-06T08:07:17.836Z</time></trkpt><trkpt lat="45.4864433" lon="12.2266183"><ele>5.0</ele><time>2026-04-06T08:07:19.836Z</time></trkpt><trkpt lat="45.486355" lon="12.2266383"><ele>5.0</ele><time>2026-04-06T08:07:21.835Z</time></trkpt><trkpt lat="45.4862617" lon="12.22659"><ele>5.0</ele><time>2026-04-06T08:07:23.837Z</time></trkpt><trkpt lat="45.4861733" lon="12.22655"><ele>5.0</ele><time>2026-04-06T08:07:25.836Z</time></trkpt><trkpt lat="45.4860867" lon="12.2265133"><ele>4.0</ele><time>2026-04-06T08:07:27.834Z</time></trkpt><trkpt lat="45.4859983" lon="12.22649"><ele>4.0</ele><time>2026-04-06T08:07:29.835Z</time></trkpt><trkpt lat="45.4859217" lon="12.22646"><ele>3.0</ele><time>2026-04-06T08:07:31.838Z</time></trkpt><trkpt lat="45.4858617" lon="12.226425"><ele>3.0</ele><time>2026-04-06T08:07:34.834Z</time></trkpt></trkseg></trk></gpx>